Flying Cat 3 — SX6671 — position and weather

sailwx.info

Track history (hours):
 
Tides and Currents Weather Stations Pressure Air Temp Water Temp Dewpoint Dewpoint Depression Visibility Wind Speed Wind Dir Waves Ship Positions

Flying Cat 3

Last reported at 2017-Jul-25 02:30 UTC. Time now 2017-Jul-25 02:36 UTC.
Position N 37°57' E 023°39'.

Length 48 m; draft 1.5 m.

Type: High speed craft. MMSI: 239552000.

Date/timePositionNaut miles runAvg speedWind from/ knotsBaromVisibWave heightAir tempDewpointWater temp
2017-Jul-25 02:30N 37°57' E 023°39'0 0.0
2017-Jul-25 02:00N 37°57' E 023°39'0 0.0
2017-Jul-25 01:30N 37°57' E 023°39'0 0.0
2017-Jul-25 01:00N 37°57' E 023°39'0 0.0
2017-Jul-25 00:30N 37°57' E 023°39'0 0.0
2017-Jul-25 00:00N 37°57' E 023°39'0 0.0
2017-Jul-24 23:30N 37°57' E 023°39'0 0.0
2017-Jul-24 23:00N 37°57' E 023°39'0 0.0
2017-Jul-24 22:30N 37°57' E 023°39'0 0.0
2017-Jul-24 22:00N 37°57' E 023°39'0 0.0
2017-Jul-24 21:30N 37°57' E 023°39'0 0.0
2017-Jul-24 21:00N 37°57' E 023°39'0 0.0
2017-Jul-24 20:30N 37°57' E 023°39'0 0.0
2017-Jul-24 20:00N 37°57' E 023°39'0 0.0
2017-Jul-24 19:30N 37°57' E 023°39'0 0.0
2017-Jul-24 19:00N 37°57' E 023°39'0 0.0
2017-Jul-24 18:30N 37°57' E 023°39'0 0.0
2017-Jul-24 18:00N 37°57' E 023°39'0 0.0
2017-Jul-24 17:30N 37°57' E 023°39'0 0.0
2017-Jul-24 17:00N 37°57' E 023°39'0 0.0
2017-Jul-24 16:30N 37°57' E 023°39'0 0.0
2017-Jul-24 16:00N 37°57' E 023°39'16 3.0
2017-Jul-24 10:38N 37°42' E 023°32'536.9
2017-Jul-24 10:30N 37°46' E 023°35'1122.0
2017-Jul-24 10:01N 37°57' E 023°39'0 0.0
2017-Jul-24 09:31N 37°57' E 023°39'917.9
2017-Jul-24 09:01N 37°48' E 023°36'10 3.5
2017-Jul-24 06:07N 37°38' E 023°35'437.6
2017-Jul-24 06:00N 37°42' E 023°35'1530.1
2017-Jul-24 05:30N 37°57' E 023°39'0 0.1
2017-Jul-24 05:00N 37°57' E 023°39'0 0.0
2017-Jul-24 04:30N 37°57' E 023°39'0 0.0
2017-Jul-24 04:00N 37°57' E 023°39'0 0.0
2017-Jul-24 03:30N 37°57' E 023°39'0 0.0
2017-Jul-24 03:00N 37°57' E 023°39'0 0.0
2017-Jul-24 02:30N 37°57' E 023°39'0 0.0
2017-Jul-24 02:00N 37°57' E 023°39'0 0.0
2017-Jul-24 01:30N 37°57' E 023°39'0 0.0
2017-Jul-24 01:00N 37°57' E 023°39'0 0.0
2017-Jul-24 00:30N 37°57' E 023°39'0 0.0
2017-Jul-24 00:00N 37°57' E 023°39'0 0.0
2017-Jul-23 23:30N 37°57' E 023°39'0 0.0
2017-Jul-23 23:00N 37°57' E 023°39'0 0.0
2017-Jul-23 22:30N 37°57' E 023°39'0 0.0
2017-Jul-23 22:00N 37°57' E 023°39'0 0.0
2017-Jul-23 21:30N 37°57' E 023°39'0 0.0
2017-Jul-23 21:00N 37°57' E 023°39'0 0.0
2017-Jul-23 20:30N 37°57' E 023°39'0 0.0
2017-Jul-23 20:00N 37°57' E 023°39'0 0.0
2017-Jul-23 19:30N 37°57' E 023°39'0 0.0
2017-Jul-23 19:00N 37°57' E 023°39'0 0.0
2017-Jul-23 18:30N 37°57' E 023°39'1121.3
2017-Jul-23 18:01N 37°46' E 023°35'18 7.1
2017-Jul-23 15:25N 37°28' E 023°33'1536.9
2017-Jul-23 15:01N 37°43' E 023°35'1428.2
2017-Jul-23 14:30N 37°57' E 023°39'0 0.0
2017-Jul-23 14:00N 37°57' E 023°39'1020.2
2017-Jul-23 13:31N 37°47' E 023°35'7 1.7
2017-Jul-23 09:35N 37°41' E 023°32'335.7
2017-Jul-23 09:30N 37°43' E 023°33'1427.7
2017-Jul-23 09:00N 37°57' E 023°39'0 0.0
2017-Jul-23 08:30N 37°57' E 023°39'0 0.0
2017-Jul-23 08:00N 37°57' E 023°39'0 0.0
2017-Jul-23 07:30N 37°57' E 023°39'0 0.0
2017-Jul-23 07:00N 37°57' E 023°39'0 0.0
2017-Jul-23 06:30N 37°57' E 023°39'0 0.0
2017-Jul-23 06:00N 37°57' E 023°39'0 0.0
2017-Jul-23 05:30N 37°57' E 023°39'0 0.0
2017-Jul-23 05:00N 37°57' E 023°39'0 0.0
2017-Jul-23 04:30N 37°57' E 023°39'0 0.0
2017-Jul-23 04:00N 37°57' E 023°39'0 0.0
2017-Jul-23 03:30N 37°57' E 023°39'0 0.0
2017-Jul-23 03:00N 37°57' E 023°39'0 0.0
2017-Jul-23 02:30N 37°57' E 023°39'0 0.0
2017-Jul-23 02:00N 37°57' E 023°39'0 0.0
2017-Jul-23 01:30N 37°57' E 023°39'0 0.0
2017-Jul-23 01:00N 37°57' E 023°39'0 0.0
2017-Jul-23 00:30N 37°57' E 023°39'0 0.0
2017-Jul-23 00:00N 37°57' E 023°39'0 0.0
2017-Jul-22 23:30N 37°57' E 023°39'0 0.0
2017-Jul-22 23:00N 37°57' E 023°39'0 0.0
2017-Jul-22 22:30N 37°57' E 023°39'0 0.0
2017-Jul-22 22:00N 37°57' E 023°39'0 0.0
2017-Jul-22 21:30N 37°57' E 023°39'0 0.0
2017-Jul-22 21:00N 37°57' E 023°39'0 0.0
2017-Jul-22 20:30N 37°57' E 023°39'0 0.0
2017-Jul-22 20:00N 37°57' E 023°39'0 0.0
2017-Jul-22 19:30N 37°57' E 023°39'0 0.0
2017-Jul-22 19:00N 37°57' E 023°39'0 0.0
2017-Jul-22 18:30N 37°57' E 023°39'0 0.0
2017-Jul-22 18:00N 37°57' E 023°39'0 0.0
2017-Jul-22 17:30N 37°57' E 023°39'0 0.0
2017-Jul-22 17:00N 37°57' E 023°39'0 0.0
2017-Jul-22 16:30N 37°57' E 023°39'0 0.0
2017-Jul-22 16:00N 37°57' E 023°39'0 0.0
2017-Jul-22 15:31N 37°57' E 023°39'0 0.0
2017-Jul-22 15:00N 37°57' E 023°39'2019.2
2017-Jul-22 13:59N 37°38' E 023°30'4 1.3
2017-Jul-22 10:48N 37°40' E 023°35'1137.3
2017-Jul-22 10:31N 37°51' E 023°36'612.3
2017-Jul-22 10:00N 37°57' E 023°39'0 0.0
2017-Jul-22 09:30N 37°57' E 023°39'815.7
2017-Jul-22 09:01N 37°49' E 023°36'7 2.4
2017-Jul-22 06:00N 37°42' E 023°35'1530.1
2017-Jul-22 05:31N 37°57' E 023°39'0 0.1
2017-Jul-22 05:00N 37°57' E 023°39'0 0.0
2017-Jul-22 04:30N 37°57' E 023°39'0 0.0
2017-Jul-22 04:00N 37°57' E 023°39'0 0.0
2017-Jul-22 03:30N 37°57' E 023°39'0 0.0
2017-Jul-22 03:00N 37°57' E 023°39'0 0.0
2017-Jul-22 02:30N 37°57' E 023°39'0 0.0
2017-Jul-22 02:00N 37°57' E 023°39'0 0.0
2017-Jul-22 01:30N 37°57' E 023°39'0 0.0
2017-Jul-22 01:00N 37°57' E 023°39'0 0.0
2017-Jul-22 00:30N 37°57' E 023°39'0 0.0
2017-Jul-22 00:00N 37°57' E 023°39'0 0.0
2017-Jul-21 23:30N 37°57' E 023°39'0 0.0
2017-Jul-21 23:00N 37°57' E 023°39'0 0.0
2017-Jul-21 22:30N 37°57' E 023°39'0 0.0
2017-Jul-21 22:00N 37°57' E 023°39'0 0.0
2017-Jul-21 21:30N 37°57' E 023°39'0 0.0
2017-Jul-21 21:00N 37°57' E 023°39'0 0.0
2017-Jul-21 20:30N 37°57' E 023°39'0 0.0
2017-Jul-21 20:00N 37°57' E 023°39'0 0.0
2017-Jul-21 19:30N 37°57' E 023°39'0 0.0
2017-Jul-21 19:00N 37°57' E 023°39'1020.5
2017-Jul-21 18:31N 37°47' E 023°35'5 1.4
2017-Jul-21 15:01N 37°42' E 023°35'036.8
2017-Jul-21 15:00N 37°42' E 023°35'1529.1
2017-Jul-21 14:31N 37°57' E 023°39'0 0.1
2017-Jul-21 14:00N 37°57' E 023°39'0 0.2
2017-Jul-21 13:31N 37°57' E 023°38'1629.7
2017-Jul-21 12:58N 37°41' E 023°32'1 0.5
2017-Jul-21 10:32N 37°42' E 023°32'236.9
2017-Jul-21 10:29N 37°44' E 023°33'1327.6
2017-Jul-21 10:00N 37°57' E 023°39'0 0.0
2017-Jul-21 09:30N 37°57' E 023°39'0 0.0
2017-Jul-21 09:00N 37°57' E 023°39'0 0.0
2017-Jul-21 08:30N 37°57' E 023°39'0 0.0
2017-Jul-21 08:00N 37°57' E 023°39'0 0.0
2017-Jul-21 07:30N 37°57' E 023°39'0 0.0
2017-Jul-21 07:00N 37°57' E 023°39'0 0.0
2017-Jul-21 06:30N 37°57' E 023°39'0 0.0
2017-Jul-21 06:00N 37°57' E 023°39'0 0.0
2017-Jul-21 05:30N 37°57' E 023°39'0 0.0
2017-Jul-21 05:00N 37°57' E 023°39'0 0.0
2017-Jul-21 04:30N 37°57' E 023°39'0 0.0
2017-Jul-21 04:00N 37°57' E 023°39'0 0.0
2017-Jul-21 03:30N 37°57' E 023°39'0 0.0
2017-Jul-21 03:00N 37°57' E 023°39'0 0.0
2017-Jul-21 02:30N 37°57' E 023°39'0 0.0
2017-Jul-21 02:00N 37°57' E 023°39'0 0.0
2017-Jul-21 01:30N 37°57' E 023°39'0 0.0
2017-Jul-21 01:00N 37°57' E 023°39'0 0.0
2017-Jul-21 00:30N 37°57' E 023°39'0 0.0
2017-Jul-21 00:00N 37°57' E 023°39'0 0.0
2017-Jul-20 23:30N 37°57' E 023°39'0 0.0
2017-Jul-20 23:00N 37°57' E 023°39'0 0.0
2017-Jul-20 22:30N 37°57' E 023°39'0 0.0
2017-Jul-20 22:00N 37°57' E 023°39'0 0.0
2017-Jul-20 21:30N 37°57' E 023°39'0 0.0
2017-Jul-20 21:00N 37°57' E 023°39'0 0.0
2017-Jul-20 20:30N 37°57' E 023°39'0 0.0
2017-Jul-20 20:00N 37°57' E 023°39'0 0.0
2017-Jul-20 19:30N 37°57' E 023°39'0 0.0
2017-Jul-20 19:00N 37°57' E 023°39'0 0.0
2017-Jul-20 18:30N 37°57' E 023°39'0 0.0
2017-Jul-20 18:00N 37°57' E 023°39'0 0.0
2017-Jul-20 17:30N 37°57' E 023°39'0 0.0
2017-Jul-20 17:00N 37°57' E 023°39'0 0.0
2017-Jul-20 16:30N 37°57' E 023°39'0 0.0
2017-Jul-20 16:00N 37°57' E 023°39'0 0.0
2017-Jul-20 15:30N 37°57' E 023°39'0 0.0
2017-Jul-20 15:00N 37°57' E 023°39'13 3.0
2017-Jul-20 10:29N 37°44' E 023°33'1328.4
2017-Jul-20 10:01N 37°57' E 023°39'0 0.1
2017-Jul-20 09:30N 37°57' E 023°39'918.1
2017-Jul-20 09:00N 37°48' E 023°36'6 1.8
2017-Jul-20 06:01N 37°42' E 023°35'137.7
2017-Jul-20 06:00N 37°43' E 023°35'1428.0
2017-Jul-20 05:30N 37°57' E 023°39'0 0.0
2017-Jul-20 05:00N 37°57' E 023°39'0 0.0
2017-Jul-20 04:31N 37°57' E 023°39'0 0.0
2017-Jul-20 04:00N 37°57' E 023°39'0 0.0
2017-Jul-20 03:31N 37°57' E 023°39'0 0.0
2017-Jul-20 03:00N 37°57' E 023°39'0 0.0
2017-Jul-20 02:30N 37°57' E 023°39'0 0.0
2017-Jul-20 02:00N 37°57' E 023°39'0 0.0
2017-Jul-20 01:30N 37°57' E 023°39'0 0.0
2017-Jul-20 01:00N 37°57' E 023°39'0 0.0
2017-Jul-20 00:30N 37°57' E 023°39'0 0.0
2017-Jul-20 00:01N 37°57' E 023°39'0 0.0
2017-Jul-19 23:30N 37°57' E 023°39'0 0.0
2017-Jul-19 23:00N 37°57' E 023°39'0 0.0
2017-Jul-19 22:30N 37°57' E 023°39'0 0.0
2017-Jul-19 22:00N 37°57' E 023°39'0 0.0
2017-Jul-19 21:30N 37°57' E 023°39'0 0.0
2017-Jul-19 21:00N 37°57' E 023°39'0 0.0
2017-Jul-19 20:30N 37°57' E 023°39'0 0.0
2017-Jul-19 20:00N 37°57' E 023°39'0 0.0
2017-Jul-19 19:30N 37°57' E 023°39'0 0.0
2017-Jul-19 19:01N 37°57' E 023°39'0 0.0
2017-Jul-19 18:30N 37°57' E 023°39'0 0.0
2017-Jul-19 18:00N 37°57' E 023°39'0 0.0
2017-Jul-19 17:30N 37°57' E 023°39'0 0.0
2017-Jul-19 17:00N 37°57' E 023°39'0 0.0
2017-Jul-19 16:30N 37°57' E 023°39'0 0.0
2017-Jul-19 16:00N 37°57' E 023°39'0 0.0
2017-Jul-19 15:30N 37°57' E 023°39'0 0.0
2017-Jul-19 15:00N 37°57' E 023°39'713.5
2017-Jul-19 14:31N 37°50' E 023°36'6 1.6
2017-Jul-19 10:30N 37°44' E 023°34'1326.2
2017-Jul-19 10:01N 37°57' E 023°39'0 0.0
2017-Jul-19 09:30N 37°57' E 023°39'918.3
2017-Jul-19 09:00N 37°48' E 023°36'5 1.5
2017-Jul-19 05:59N 37°43' E 023°35'1429.1
2017-Jul-19 05:31N 37°57' E 023°39'0 0.0
2017-Jul-19 05:00N 37°57' E 023°39'0 0.0
2017-Jul-19 04:30N 37°57' E 023°39'0 0.0
2017-Jul-19 04:00N 37°57' E 023°39'0 0.0
2017-Jul-19 03:30N 37°57' E 023°39'0 0.0
2017-Jul-19 03:00N 37°57' E 023°39'0 0.0
2017-Jul-19 02:30N 37°57' E 023°39'0 0.0
2017-Jul-19 02:00N 37°57' E 023°39'0 0.0
2017-Jul-19 01:30N 37°57' E 023°39'0 0.0
2017-Jul-19 01:00N 37°57' E 023°39'0 0.0
2017-Jul-19 00:30N 37°57' E 023°39'0 0.0
2017-Jul-19 00:00N 37°57' E 023°39'0 0.0
2017-Jul-18 23:30N 37°57' E 023°39'0 0.0
2017-Jul-18 23:00N 37°57' E 023°39'0 0.0
2017-Jul-18 22:30N 37°57' E 023°39'0 0.0
2017-Jul-18 22:00N 37°57' E 023°39'0 0.0
2017-Jul-18 21:30N 37°57' E 023°39'0 0.0
2017-Jul-18 21:00N 37°57' E 023°39'0 0.0
2017-Jul-18 20:30N 37°57' E 023°39'0 0.0
2017-Jul-18 20:00N 37°57' E 023°39'0 0.0
2017-Jul-18 19:30N 37°57' E 023°39'0 0.0
2017-Jul-18 19:00N 37°57' E 023°39'0 0.0
2017-Jul-18 18:30N 37°57' E 023°39'0 0.0
2017-Jul-18 18:00N 37°57' E 023°39'0 0.0
2017-Jul-18 17:30N 37°57' E 023°39'0 0.0
2017-Jul-18 17:00N 37°57' E 023°39'0 0.0
2017-Jul-18 16:30N 37°57' E 023°39'0 0.0
2017-Jul-18 16:00N 37°57' E 023°39'0 0.0
2017-Jul-18 15:30N 37°57' E 023°39'0 0.0
2017-Jul-18 15:00N 37°57' E 023°39'14 3.1
2017-Jul-18 10:32N 37°43' E 023°33'136.7
2017-Jul-18 10:30N 37°44' E 023°34'1326.1
2017-Jul-18 10:01N 37°57' E 023°39'0 0.0
2017-Jul-18 09:31N 37°57' E 023°39'816.4
2017-Jul-18 09:01N 37°49' E 023°36'7 2.3
2017-Jul-18 06:00N 37°42' E 023°35'1530.9
2017-Jul-18 05:30N 37°57' E 023°39'0 0.0
2017-Jul-18 05:00N 37°57' E 023°39'0 0.0
2017-Jul-18 04:30N 37°57' E 023°39'0 0.0
2017-Jul-18 04:00N 37°57' E 023°39'0 0.0
2017-Jul-18 03:30N 37°57' E 023°39'0 0.0
2017-Jul-18 03:00N 37°57' E 023°39'0 0.2
2017-Jul-18 02:30N 37°57' E 023°39'0 0.2
2017-Jul-18 02:00N 37°57' E 023°39'0 0.0
2017-Jul-18 01:30N 37°57' E 023°39'0 0.0
2017-Jul-18 01:00N 37°57' E 023°39'0 0.0
2017-Jul-18 00:30N 37°57' E 023°39'0 0.0
2017-Jul-18 00:00N 37°57' E 023°39'0 0.0
2017-Jul-17 23:30N 37°57' E 023°39'0 0.0
2017-Jul-17 23:00N 37°57' E 023°39'0 0.0
2017-Jul-17 22:30N 37°57' E 023°39'0 0.0
2017-Jul-17 22:00N 37°57' E 023°39'0 0.0
2017-Jul-17 21:30N 37°57' E 023°39'0 0.0
2017-Jul-17 21:00N 37°57' E 023°39'0 0.0
2017-Jul-17 20:30N 37°57' E 023°39'0 0.0
2017-Jul-17 20:00N 37°57' E 023°39'0 0.0
2017-Jul-17 19:30N 37°57' E 023°39'0 0.0
2017-Jul-17 19:00N 37°57' E 023°39'0 0.0
2017-Jul-17 18:30N 37°57' E 023°39'0 0.0
2017-Jul-17 18:00N 37°57' E 023°39'0 0.0
2017-Jul-17 17:30N 37°57' E 023°39'0 0.0
2017-Jul-17 17:00N 37°57' E 023°39'0 0.0
2017-Jul-17 16:30N 37°57' E 023°39'0 0.0
2017-Jul-17 16:00N 37°57' E 023°39'0 0.0
2017-Jul-17 15:30N 37°57' E 023°39'0 0.0
2017-Jul-17 15:00N 37°57' E 023°39'611.6
2017-Jul-17 14:31N 37°51' E 023°36'8 1.9
2017-Jul-17 10:29N 37°44' E 023°33'1328.4
2017-Jul-17 10:00N 37°57' E 023°39'0 0.0
2017-Jul-17 09:30N 37°57' E 023°39'816.3
2017-Jul-17 09:01N 37°49' E 023°36'6 2.1
2017-Jul-17 06:00N 37°42' E 023°35'1429.5
2017-Jul-17 05:30N 37°57' E 023°39'0 0.0
2017-Jul-17 05:00N 37°57' E 023°39'0 0.0
2017-Jul-17 04:30N 37°57' E 023°39'0 0.0
2017-Jul-17 04:00N 37°57' E 023°39'0 0.0
2017-Jul-17 03:30N 37°57' E 023°39'0 0.0
2017-Jul-17 03:00N 37°57' E 023°39'0 0.0
2017-Jul-17 02:30N 37°57' E 023°39'0 0.0
2017-Jul-17 02:00N 37°57' E 023°39'0 0.0
2017-Jul-17 01:30N 37°57' E 023°39'0 0.0
2017-Jul-17 01:00N 37°57' E 023°39'0 0.0
2017-Jul-17 00:30N 37°57' E 023°39'0 0.0
2017-Jul-17 00:00N 37°57' E 023°39'0 0.0
2017-Jul-16 23:30N 37°57' E 023°39'0 0.0
2017-Jul-16 23:00N 37°57' E 023°39'0 0.0
2017-Jul-16 22:30N 37°57' E 023°39'0 0.0
2017-Jul-16 22:00N 37°57' E 023°39'0 0.0
2017-Jul-16 21:30N 37°57' E 023°39'0 0.0
2017-Jul-16 21:00N 37°57' E 023°39'0 0.0
2017-Jul-16 20:30N 37°57' E 023°39'0 0.0
2017-Jul-16 20:00N 37°57' E 023°39'0 0.0
2017-Jul-16 19:30N 37°57' E 023°39'0 0.0
2017-Jul-16 19:00N 37°57' E 023°39'0 0.0
2017-Jul-16 18:30N 37°57' E 023°39'1224.3
2017-Jul-16 18:00N 37°45' E 023°35'2 0.8
2017-Jul-16 15:01N 37°43' E 023°34'037.1
2017-Jul-16 15:00N 37°43' E 023°34'1427.8
2017-Jul-16 14:30N 37°57' E 023°39'0 0.0
2017-Jul-16 14:00N 37°57' E 023°39'1121.3
2017-Jul-16 13:30N 37°46' E 023°35'3 0.8
2017-Jul-16 09:29N 37°44' E 023°33'1427.0
2017-Jul-16 08:59N 37°57' E 023°39'0 0.0
2017-Jul-16 08:29N 37°57' E 023°39'0 0.0
2017-Jul-16 07:59N 37°57' E 023°39'0 0.0
2017-Jul-16 07:29N 37°57' E 023°39'0 0.0
2017-Jul-16 06:59N 37°57' E 023°39'0 0.0
2017-Jul-16 06:29N 37°57' E 023°39'0 0.0
2017-Jul-16 05:59N 37°57' E 023°39'0 0.0
2017-Jul-16 05:29N 37°57' E 023°39'0 0.0
2017-Jul-16 04:59N 37°57' E 023°39'0 0.0
2017-Jul-16 04:29N 37°57' E 023°39'0 0.0
2017-Jul-16 03:59N 37°57' E 023°39'0 0.0
2017-Jul-16 03:29N 37°57' E 023°39'0 0.0
2017-Jul-16 02:59N 37°57' E 023°39'0 0.0
2017-Jul-16 02:29N 37°57' E 023°39'0 0.0
2017-Jul-16 01:59N 37°57' E 023°39'0 0.0
2017-Jul-16 01:29N 37°57' E 023°39'0 0.0
2017-Jul-16 00:56N 37°57' E 023°39'0 0.0
2017-Jul-16 00:29N 37°57' E 023°39'0 0.0
2017-Jul-15 23:59N 37°57' E 023°39'0 0.0
2017-Jul-15 23:29N 37°57' E 023°39'0 0.0
2017-Jul-15 22:59N 37°57' E 023°39'0 0.0
2017-Jul-15 22:29N 37°57' E 023°39'0 0.0
2017-Jul-15 21:59N 37°57' E 023°39'0 0.0
2017-Jul-15 21:29N 37°57' E 023°39'0 0.0
2017-Jul-15 20:59N 37°57' E 023°39'0 0.0
2017-Jul-15 20:29N 37°57' E 023°39'0 0.0
2017-Jul-15 19:59N 37°57' E 023°39'0 0.0
2017-Jul-15 19:29N 37°57' E 023°39'0 0.0
2017-Jul-15 18:56N 37°57' E 023°39'0 0.0
2017-Jul-15 18:29N 37°57' E 023°39'0 0.0
2017-Jul-15 17:59N 37°57' E 023°39'0 0.0
2017-Jul-15 17:29N 37°57' E 023°39'0 0.0
2017-Jul-15 16:59N 37°57' E 023°39'0 0.0
2017-Jul-15 16:29N 37°57' E 023°39'0 0.0
2017-Jul-15 15:56N 37°57' E 023°39'0 0.0
2017-Jul-15 15:29N 37°57' E 023°39'0 0.0
2017-Jul-15 14:59N 37°57' E 023°39'17 4.1
2017-Jul-15 10:49N 37°40' E 023°35'1136.7
2017-Jul-15 10:30N 37°51' E 023°36'611.2
2017-Jul-15 09:59N 37°57' E 023°39'0 0.0
2017-Jul-15 09:29N 37°57' E 023°39'817.1
2017-Jul-15 09:01N 37°49' E 023°35'6 2.2
2017-Jul-15 06:01N 37°42' E 023°35'136.5
2017-Jul-15 06:00N 37°43' E 023°35'1428.6
2017-Jul-15 05:30N 37°57' E 023°39'0 0.0
2017-Jul-15 05:00N 37°57' E 023°39'0 0.0
2017-Jul-15 04:30N 37°57' E 023°39'0 0.0
2017-Jul-15 04:01N 37°57' E 023°39'0 0.0
2017-Jul-15 03:31N 37°57' E 023°39'0 0.0
2017-Jul-15 03:01N 37°57' E 023°39'0 0.0
2017-Jul-15 02:31N 37°57' E 023°39'  
Track history (hours):
 
Tides and Currents Weather Stations Pressure Air Temp Water Temp Dewpoint Dewpoint Depression Visibility Wind Speed Wind Dir Waves Ship Positions

Flying Cat 3

Last reported at 2017-Jul-25 02:30 UTC. Time now 2017-Jul-25 02:36 UTC.
Position N 37°57' E 023°39'.

Length 48 m; draft 1.5 m.

Type: High speed craft. MMSI: 239552000.

Date/timePositionNaut miles runAvg speedWind from/ knotsBaromVisibWave heightAir tempDewpointWater temp
2017-Jul-25 02:30N 37°57' E 023°39'0 0.0
2017-Jul-25 02:00N 37°57' E 023°39'0 0.0
2017-Jul-25 01:30N 37°57' E 023°39'0 0.0
2017-Jul-25 01:00N 37°57' E 023°39'0 0.0
2017-Jul-25 00:30N 37°57' E 023°39'0 0.0
2017-Jul-25 00:00N 37°57' E 023°39'0 0.0
2017-Jul-24 23:30N 37°57' E 023°39'0 0.0
2017-Jul-24 23:00N 37°57' E 023°39'0 0.0
2017-Jul-24 22:30N 37°57' E 023°39'0 0.0
2017-Jul-24 22:00N 37°57' E 023°39'0 0.0
2017-Jul-24 21:30N 37°57' E 023°39'0 0.0
2017-Jul-24 21:00N 37°57' E 023°39'0 0.0
2017-Jul-24 20:30N 37°57' E 023°39'0 0.0
2017-Jul-24 20:00N 37°57' E 023°39'0 0.0
2017-Jul-24 19:30N 37°57' E 023°39'0 0.0
2017-Jul-24 19:00N 37°57' E 023°39'0 0.0
2017-Jul-24 18:30N 37°57' E 023°39'0 0.0
2017-Jul-24 18:00N 37°57' E 023°39'0 0.0
2017-Jul-24 17:30N 37°57' E 023°39'0 0.0
2017-Jul-24 17:00N 37°57' E 023°39'0 0.0
2017-Jul-24 16:30N 37°57' E 023°39'0 0.0
2017-Jul-24 16:00N 37°57' E 023°39'16 3.0
2017-Jul-24 10:38N 37°42' E 023°32'536.9
2017-Jul-24 10:30N 37°46' E 023°35'1122.0
2017-Jul-24 10:01N 37°57' E 023°39'0 0.0
2017-Jul-24 09:31N 37°57' E 023°39'917.9
2017-Jul-24 09:01N 37°48' E 023°36'10 3.5
2017-Jul-24 06:07N 37°38' E 023°35'437.6
2017-Jul-24 06:00N 37°42' E 023°35'1530.1
2017-Jul-24 05:30N 37°57' E 023°39'0 0.1
2017-Jul-24 05:00N 37°57' E 023°39'0 0.0
2017-Jul-24 04:30N 37°57' E 023°39'0 0.0
2017-Jul-24 04:00N 37°57' E 023°39'0 0.0
2017-Jul-24 03:30N 37°57' E 023°39'0 0.0
2017-Jul-24 03:00N 37°57' E 023°39'0 0.0
2017-Jul-24 02:30N 37°57' E 023°39'0 0.0
2017-Jul-24 02:00N 37°57' E 023°39'0 0.0
2017-Jul-24 01:30N 37°57' E 023°39'0 0.0
2017-Jul-24 01:00N 37°57' E 023°39'0 0.0
2017-Jul-24 00:30N 37°57' E 023°39'0 0.0
2017-Jul-24 00:00N 37°57' E 023°39'0 0.0
2017-Jul-23 23:30N 37°57' E 023°39'0 0.0
2017-Jul-23 23:00N 37°57' E 023°39'0 0.0
2017-Jul-23 22:30N 37°57' E 023°39'0 0.0
2017-Jul-23 22:00N 37°57' E 023°39'0 0.0
2017-Jul-23 21:30N 37°57' E 023°39'0 0.0
2017-Jul-23 21:00N 37°57' E 023°39'0 0.0
2017-Jul-23 20:30N 37°57' E 023°39'0 0.0
2017-Jul-23 20:00N 37°57' E 023°39'0 0.0
2017-Jul-23 19:30N 37°57' E 023°39'0 0.0
2017-Jul-23 19:00N 37°57' E 023°39'0 0.0
2017-Jul-23 18:30N 37°57' E 023°39'1121.3
2017-Jul-23 18:01N 37°46' E 023°35'18 7.1
2017-Jul-23 15:25N 37°28' E 023°33'1536.9
2017-Jul-23 15:01N 37°43' E 023°35'1428.2
2017-Jul-23 14:30N 37°57' E 023°39'0 0.0
2017-Jul-23 14:00N 37°57' E 023°39'1020.2
2017-Jul-23 13:31N 37°47' E 023°35'7 1.7
2017-Jul-23 09:35N 37°41' E 023°32'335.7
2017-Jul-23 09:30N 37°43' E 023°33'1427.7
2017-Jul-23 09:00N 37°57' E 023°39'0 0.0
2017-Jul-23 08:30N 37°57' E 023°39'0 0.0
2017-Jul-23 08:00N 37°57' E 023°39'0 0.0
2017-Jul-23 07:30N 37°57' E 023°39'0 0.0
2017-Jul-23 07:00N 37°57' E 023°39'0 0.0
2017-Jul-23 06:30N 37°57' E 023°39'0 0.0
2017-Jul-23 06:00N 37°57' E 023°39'0 0.0
2017-Jul-23 05:30N 37°57' E 023°39'0 0.0
2017-Jul-23 05:00N 37°57' E 023°39'0 0.0
2017-Jul-23 04:30N 37°57' E 023°39'0 0.0
2017-Jul-23 04:00N 37°57' E 023°39'0 0.0
2017-Jul-23 03:30N 37°57' E 023°39'0 0.0
2017-Jul-23 03:00N 37°57' E 023°39'0 0.0
2017-Jul-23 02:30N 37°57' E 023°39'0 0.0
2017-Jul-23 02:00N 37°57' E 023°39'0 0.0
2017-Jul-23 01:30N 37°57' E 023°39'0 0.0
2017-Jul-23 01:00N 37°57' E 023°39'0 0.0
2017-Jul-23 00:30N 37°57' E 023°39'0 0.0
2017-Jul-23 00:00N 37°57' E 023°39'0 0.0
2017-Jul-22 23:30N 37°57' E 023°39'0 0.0
2017-Jul-22 23:00N 37°57' E 023°39'0 0.0
2017-Jul-22 22:30N 37°57' E 023°39'0 0.0
2017-Jul-22 22:00N 37°57' E 023°39'0 0.0
2017-Jul-22 21:30N 37°57' E 023°39'0 0.0
2017-Jul-22 21:00N 37°57' E 023°39'0 0.0
2017-Jul-22 20:30N 37°57' E 023°39'0 0.0
2017-Jul-22 20:00N 37°57' E 023°39'0 0.0
2017-Jul-22 19:30N 37°57' E 023°39'0 0.0
2017-Jul-22 19:00N 37°57' E 023°39'0 0.0
2017-Jul-22 18:30N 37°57' E 023°39'0 0.0
2017-Jul-22 18:00N 37°57' E 023°39'0 0.0
2017-Jul-22 17:30N 37°57' E 023°39'0 0.0
2017-Jul-22 17:00N 37°57' E 023°39'0 0.0
2017-Jul-22 16:30N 37°57' E 023°39'0 0.0
2017-Jul-22 16:00N 37°57' E 023°39'0 0.0
2017-Jul-22 15:31N 37°57' E 023°39'0 0.0
2017-Jul-22 15:00N 37°57' E 023°39'2019.2
2017-Jul-22 13:59N 37°38' E 023°30'4 1.3
2017-Jul-22 10:48N 37°40' E 023°35'1137.3
2017-Jul-22 10:31N 37°51' E 023°36'612.3
2017-Jul-22 10:00N 37°57' E 023°39'0 0.0
2017-Jul-22 09:30N 37°57' E 023°39'815.7
2017-Jul-22 09:01N 37°49' E 023°36'7 2.4
2017-Jul-22 06:00N 37°42' E 023°35'1530.1
2017-Jul-22 05:31N 37°57' E 023°39'0 0.1
2017-Jul-22 05:00N 37°57' E 023°39'0 0.0
2017-Jul-22 04:30N 37°57' E 023°39'0 0.0
2017-Jul-22 04:00N 37°57' E 023°39'0 0.0
2017-Jul-22 03:30N 37°57' E 023°39'0 0.0
2017-Jul-22 03:00N 37°57' E 023°39'0 0.0
2017-Jul-22 02:30N 37°57' E 023°39'0 0.0
2017-Jul-22 02:00N 37°57' E 023°39'0 0.0
2017-Jul-22 01:30N 37°57' E 023°39'0 0.0
2017-Jul-22 01:00N 37°57' E 023°39'0 0.0
2017-Jul-22 00:30N 37°57' E 023°39'0 0.0
2017-Jul-22 00:00N 37°57' E 023°39'0 0.0
2017-Jul-21 23:30N 37°57' E 023°39'0 0.0
2017-Jul-21 23:00N 37°57' E 023°39'0 0.0
2017-Jul-21 22:30N 37°57' E 023°39'0 0.0
2017-Jul-21 22:00N 37°57' E 023°39'0 0.0
2017-Jul-21 21:30N 37°57' E 023°39'0 0.0
2017-Jul-21 21:00N 37°57' E 023°39'0 0.0
2017-Jul-21 20:30N 37°57' E 023°39'0 0.0
2017-Jul-21 20:00N 37°57' E 023°39'0 0.0
2017-Jul-21 19:30N 37°57' E 023°39'0 0.0
2017-Jul-21 19:00N 37°57' E 023°39'1020.5
2017-Jul-21 18:31N 37°47' E 023°35'5 1.4
2017-Jul-21 15:01N 37°42' E 023°35'036.8
2017-Jul-21 15:00N 37°42' E 023°35'1529.1
2017-Jul-21 14:31N 37°57' E 023°39'0 0.1
2017-Jul-21 14:00N 37°57' E 023°39'0 0.2
2017-Jul-21 13:31N 37°57' E 023°38'1629.7
2017-Jul-21 12:58N 37°41' E 023°32'1 0.5
2017-Jul-21 10:32N 37°42' E 023°32'236.9
2017-Jul-21 10:29N 37°44' E 023°33'1327.6
2017-Jul-21 10:00N 37°57' E 023°39'0 0.0
2017-Jul-21 09:30N 37°57' E 023°39'0 0.0
2017-Jul-21 09:00N 37°57' E 023°39'0 0.0
2017-Jul-21 08:30N 37°57' E 023°39'0 0.0
2017-Jul-21 08:00N 37°57' E 023°39'0 0.0
2017-Jul-21 07:30N 37°57' E 023°39'0 0.0
2017-Jul-21 07:00N 37°57' E 023°39'0 0.0
2017-Jul-21 06:30N 37°57' E 023°39'0 0.0
2017-Jul-21 06:00N 37°57' E 023°39'0 0.0
2017-Jul-21 05:30N 37°57' E 023°39'0 0.0
2017-Jul-21 05:00N 37°57' E 023°39'0 0.0
2017-Jul-21 04:30N 37°57' E 023°39'0 0.0
2017-Jul-21 04:00N 37°57' E 023°39'0 0.0
2017-Jul-21 03:30N 37°57' E 023°39'0 0.0
2017-Jul-21 03:00N 37°57' E 023°39'0 0.0
2017-Jul-21 02:30N 37°57' E 023°39'0 0.0
2017-Jul-21 02:00N 37°57' E 023°39'0 0.0
2017-Jul-21 01:30N 37°57' E 023°39'0 0.0
2017-Jul-21 01:00N 37°57' E 023°39'0 0.0
2017-Jul-21 00:30N 37°57' E 023°39'0 0.0
2017-Jul-21 00:00N 37°57' E 023°39'0 0.0
2017-Jul-20 23:30N 37°57' E 023°39'0 0.0
2017-Jul-20 23:00N 37°57' E 023°39'0 0.0
2017-Jul-20 22:30N 37°57' E 023°39'0 0.0
2017-Jul-20 22:00N 37°57' E 023°39'0 0.0
2017-Jul-20 21:30N 37°57' E 023°39'0 0.0
2017-Jul-20 21:00N 37°57' E 023°39'0 0.0
2017-Jul-20 20:30N 37°57' E 023°39'0 0.0
2017-Jul-20 20:00N 37°57' E 023°39'0 0.0
2017-Jul-20 19:30N 37°57' E 023°39'0 0.0
2017-Jul-20 19:00N 37°57' E 023°39'0 0.0
2017-Jul-20 18:30N 37°57' E 023°39'0 0.0
2017-Jul-20 18:00N 37°57' E 023°39'0 0.0
2017-Jul-20 17:30N 37°57' E 023°39'0 0.0
2017-Jul-20 17:00N 37°57' E 023°39'0 0.0
2017-Jul-20 16:30N 37°57' E 023°39'0 0.0
2017-Jul-20 16:00N 37°57' E 023°39'0 0.0
2017-Jul-20 15:30N 37°57' E 023°39'0 0.0
2017-Jul-20 15:00N 37°57' E 023°39'13 3.0
2017-Jul-20 10:29N 37°44' E 023°33'1328.4
2017-Jul-20 10:01N 37°57' E 023°39'0 0.1
2017-Jul-20 09:30N 37°57' E 023°39'918.1
2017-Jul-20 09:00N 37°48' E 023°36'6 1.8
2017-Jul-20 06:01N 37°42' E 023°35'137.7
2017-Jul-20 06:00N 37°43' E 023°35'1428.0
2017-Jul-20 05:30N 37°57' E 023°39'0 0.0
2017-Jul-20 05:00N 37°57' E 023°39'0 0.0
2017-Jul-20 04:31N 37°57' E 023°39'0 0.0
2017-Jul-20 04:00N 37°57' E 023°39'0 0.0
2017-Jul-20 03:31N 37°57' E 023°39'0 0.0
2017-Jul-20 03:00N 37°57' E 023°39'0 0.0
2017-Jul-20 02:30N 37°57' E 023°39'0 0.0
2017-Jul-20 02:00N 37°57' E 023°39'0 0.0
2017-Jul-20 01:30N 37°57' E 023°39'0 0.0
2017-Jul-20 01:00N 37°57' E 023°39'0 0.0
2017-Jul-20 00:30N 37°57' E 023°39'0 0.0
2017-Jul-20 00:01N 37°57' E 023°39'0 0.0
2017-Jul-19 23:30N 37°57' E 023°39'0 0.0
2017-Jul-19 23:00N 37°57' E 023°39'0 0.0
2017-Jul-19 22:30N 37°57' E 023°39'0 0.0
2017-Jul-19 22:00N 37°57' E 023°39'0 0.0
2017-Jul-19 21:30N 37°57' E 023°39'0 0.0
2017-Jul-19 21:00N 37°57' E 023°39'0 0.0
2017-Jul-19 20:30N 37°57' E 023°39'0 0.0
2017-Jul-19 20:00N 37°57' E 023°39'0 0.0
2017-Jul-19 19:30N 37°57' E 023°39'0 0.0
2017-Jul-19 19:01N 37°57' E 023°39'0 0.0
2017-Jul-19 18:30N 37°57' E 023°39'0 0.0
2017-Jul-19 18:00N 37°57' E 023°39'0 0.0
2017-Jul-19 17:30N 37°57' E 023°39'0 0.0
2017-Jul-19 17:00N 37°57' E 023°39'0 0.0
2017-Jul-19 16:30N 37°57' E 023°39'0 0.0
2017-Jul-19 16:00N 37°57' E 023°39'0 0.0
2017-Jul-19 15:30N 37°57' E 023°39'0 0.0
2017-Jul-19 15:00N 37°57' E 023°39'713.5
2017-Jul-19 14:31N 37°50' E 023°36'6 1.6
2017-Jul-19 10:30N 37°44' E 023°34'1326.2
2017-Jul-19 10:01N 37°57' E 023°39'0 0.0
2017-Jul-19 09:30N 37°57' E 023°39'918.3
2017-Jul-19 09:00N 37°48' E 023°36'5 1.5
2017-Jul-19 05:59N 37°43' E 023°35'1429.1
2017-Jul-19 05:31N 37°57' E 023°39'0 0.0
2017-Jul-19 05:00N 37°57' E 023°39'0 0.0
2017-Jul-19 04:30N 37°57' E 023°39'0 0.0
2017-Jul-19 04:00N 37°57' E 023°39'0 0.0
2017-Jul-19 03:30N 37°57' E 023°39'0 0.0
2017-Jul-19 03:00N 37°57' E 023°39'0 0.0
2017-Jul-19 02:30N 37°57' E 023°39'0 0.0
2017-Jul-19 02:00N 37°57' E 023°39'0 0.0
2017-Jul-19 01:30N 37°57' E 023°39'0 0.0
2017-Jul-19 01:00N 37°57' E 023°39'0 0.0
2017-Jul-19 00:30N 37°57' E 023°39'0 0.0
2017-Jul-19 00:00N 37°57' E 023°39'0 0.0
2017-Jul-18 23:30N 37°57' E 023°39'0 0.0
2017-Jul-18 23:00N 37°57' E 023°39'0 0.0
2017-Jul-18 22:30N 37°57' E 023°39'0 0.0
2017-Jul-18 22:00N 37°57' E 023°39'0 0.0
2017-Jul-18 21:30N 37°57' E 023°39'0 0.0
2017-Jul-18 21:00N 37°57' E 023°39'0 0.0
2017-Jul-18 20:30N 37°57' E 023°39'0 0.0
2017-Jul-18 20:00N 37°57' E 023°39'0 0.0
2017-Jul-18 19:30N 37°57' E 023°39'0 0.0
2017-Jul-18 19:00N 37°57' E 023°39'0 0.0
2017-Jul-18 18:30N 37°57' E 023°39'0 0.0
2017-Jul-18 18:00N 37°57' E 023°39'0 0.0
2017-Jul-18 17:30N 37°57' E 023°39'0 0.0
2017-Jul-18 17:00N 37°57' E 023°39'0 0.0
2017-Jul-18 16:30N 37°57' E 023°39'0 0.0
2017-Jul-18 16:00N 37°57' E 023°39'0 0.0
2017-Jul-18 15:30N 37°57' E 023°39'0 0.0
2017-Jul-18 15:00N 37°57' E 023°39'14 3.1
2017-Jul-18 10:32N 37°43' E 023°33'136.7
2017-Jul-18 10:30N 37°44' E 023°34'1326.1
2017-Jul-18 10:01N 37°57' E 023°39'0 0.0
2017-Jul-18 09:31N 37°57' E 023°39'816.4
2017-Jul-18 09:01N 37°49' E 023°36'7 2.3
2017-Jul-18 06:00N 37°42' E 023°35'1530.9
2017-Jul-18 05:30N 37°57' E 023°39'0 0.0
2017-Jul-18 05:00N 37°57' E 023°39'0 0.0
2017-Jul-18 04:30N 37°57' E 023°39'0 0.0
2017-Jul-18 04:00N 37°57' E 023°39'0 0.0
2017-Jul-18 03:30N 37°57' E 023°39'0 0.0
2017-Jul-18 03:00N 37°57' E 023°39'0 0.2
2017-Jul-18 02:30N 37°57' E 023°39'0 0.2
2017-Jul-18 02:00N 37°57' E 023°39'0 0.0
2017-Jul-18 01:30N 37°57' E 023°39'0 0.0
2017-Jul-18 01:00N 37°57' E 023°39'0 0.0
2017-Jul-18 00:30N 37°57' E 023°39'0 0.0
2017-Jul-18 00:00N 37°57' E 023°39'0 0.0
2017-Jul-17 23:30N 37°57' E 023°39'0 0.0
2017-Jul-17 23:00N 37°57' E 023°39'0 0.0
2017-Jul-17 22:30N 37°57' E 023°39'0 0.0
2017-Jul-17 22:00N 37°57' E 023°39'0 0.0
2017-Jul-17 21:30N 37°57' E 023°39'0 0.0
2017-Jul-17 21:00N 37°57' E 023°39'0 0.0
2017-Jul-17 20:30N 37°57' E 023°39'0 0.0
2017-Jul-17 20:00N 37°57' E 023°39'0 0.0
2017-Jul-17 19:30N 37°57' E 023°39'0 0.0
2017-Jul-17 19:00N 37°57' E 023°39'0 0.0
2017-Jul-17 18:30N 37°57' E 023°39'0 0.0
2017-Jul-17 18:00N 37°57' E 023°39'0 0.0
2017-Jul-17 17:30N 37°57' E 023°39'0 0.0
2017-Jul-17 17:00N 37°57' E 023°39'0 0.0
2017-Jul-17 16:30N 37°57' E 023°39'0 0.0
2017-Jul-17 16:00N 37°57' E 023°39'0 0.0
2017-Jul-17 15:30N 37°57' E 023°39'0 0.0
2017-Jul-17 15:00N 37°57' E 023°39'611.6
2017-Jul-17 14:31N 37°51' E 023°36'8 1.9
2017-Jul-17 10:29N 37°44' E 023°33'1328.4
2017-Jul-17 10:00N 37°57' E 023°39'0 0.0
2017-Jul-17 09:30N 37°57' E 023°39'816.3
2017-Jul-17 09:01N 37°49' E 023°36'6 2.1
2017-Jul-17 06:00N 37°42' E 023°35'1429.5
2017-Jul-17 05:30N 37°57' E 023°39'0 0.0
2017-Jul-17 05:00N 37°57' E 023°39'0 0.0
2017-Jul-17 04:30N 37°57' E 023°39'0 0.0
2017-Jul-17 04:00N 37°57' E 023°39'0 0.0
2017-Jul-17 03:30N 37°57' E 023°39'0 0.0
2017-Jul-17 03:00N 37°57' E 023°39'0 0.0
2017-Jul-17 02:30N 37°57' E 023°39'0 0.0
2017-Jul-17 02:00N 37°57' E 023°39'0 0.0
2017-Jul-17 01:30N 37°57' E 023°39'0 0.0
2017-Jul-17 01:00N 37°57' E 023°39'0 0.0
2017-Jul-17 00:30N 37°57' E 023°39'0 0.0
2017-Jul-17 00:00N 37°57' E 023°39'0 0.0
2017-Jul-16 23:30N 37°57' E 023°39'0 0.0
2017-Jul-16 23:00N 37°57' E 023°39'0 0.0
2017-Jul-16 22:30N 37°57' E 023°39'0 0.0
2017-Jul-16 22:00N 37°57' E 023°39'0 0.0
2017-Jul-16 21:30N 37°57' E 023°39'0 0.0
2017-Jul-16 21:00N 37°57' E 023°39'0 0.0
2017-Jul-16 20:30N 37°57' E 023°39'0 0.0
2017-Jul-16 20:00N 37°57' E 023°39'0 0.0
2017-Jul-16 19:30N 37°57' E 023°39'0 0.0
2017-Jul-16 19:00N 37°57' E 023°39'0 0.0
2017-Jul-16 18:30N 37°57' E 023°39'1224.3
2017-Jul-16 18:00N 37°45' E 023°35'2 0.8
2017-Jul-16 15:01N 37°43' E 023°34'037.1
2017-Jul-16 15:00N 37°43' E 023°34'1427.8
2017-Jul-16 14:30N 37°57' E 023°39'0 0.0
2017-Jul-16 14:00N 37°57' E 023°39'1121.3
2017-Jul-16 13:30N 37°46' E 023°35'3 0.8
2017-Jul-16 09:29N 37°44' E 023°33'1427.0
2017-Jul-16 08:59N 37°57' E 023°39'0 0.0
2017-Jul-16 08:29N 37°57' E 023°39'0 0.0
2017-Jul-16 07:59N 37°57' E 023°39'0 0.0
2017-Jul-16 07:29N 37°57' E 023°39'0 0.0
2017-Jul-16 06:59N 37°57' E 023°39'0 0.0
2017-Jul-16 06:29N 37°57' E 023°39'0 0.0
2017-Jul-16 05:59N 37°57' E 023°39'0 0.0
2017-Jul-16 05:29N 37°57' E 023°39'0 0.0
2017-Jul-16 04:59N 37°57' E 023°39'0 0.0
2017-Jul-16 04:29N 37°57' E 023°39'0 0.0
2017-Jul-16 03:59N 37°57' E 023°39'0 0.0
2017-Jul-16 03:29N 37°57' E 023°39'0 0.0
2017-Jul-16 02:59N 37°57' E 023°39'0 0.0
2017-Jul-16 02:29N 37°57' E 023°39'0 0.0
2017-Jul-16 01:59N 37°57' E 023°39'0 0.0
2017-Jul-16 01:29N 37°57' E 023°39'0 0.0
2017-Jul-16 00:56N 37°57' E 023°39'0 0.0
2017-Jul-16 00:29N 37°57' E 023°39'0 0.0
2017-Jul-15 23:59N 37°57' E 023°39'0 0.0
2017-Jul-15 23:29N 37°57' E 023°39'0 0.0
2017-Jul-15 22:59N 37°57' E 023°39'0 0.0
2017-Jul-15 22:29N 37°57' E 023°39'0 0.0
2017-Jul-15 21:59N 37°57' E 023°39'0 0.0
2017-Jul-15 21:29N 37°57' E 023°39'0 0.0
2017-Jul-15 20:59N 37°57' E 023°39'0 0.0
2017-Jul-15 20:29N 37°57' E 023°39'0 0.0
2017-Jul-15 19:59N 37°57' E 023°39'0 0.0
2017-Jul-15 19:29N 37°57' E 023°39'0 0.0
2017-Jul-15 18:56N 37°57' E 023°39'0 0.0
2017-Jul-15 18:29N 37°57' E 023°39'0 0.0
2017-Jul-15 17:59N 37°57' E 023°39'0 0.0
2017-Jul-15 17:29N 37°57' E 023°39'0 0.0
2017-Jul-15 16:59N 37°57' E 023°39'0 0.0
2017-Jul-15 16:29N 37°57' E 023°39'0 0.0
2017-Jul-15 15:56N 37°57' E 023°39'0 0.0
2017-Jul-15 15:29N 37°57' E 023°39'0 0.0
2017-Jul-15 14:59N 37°57' E 023°39'17 4.1
2017-Jul-15 10:49N 37°40' E 023°35'1136.7
2017-Jul-15 10:30N 37°51' E 023°36'611.2
2017-Jul-15 09:59N 37°57' E 023°39'0 0.0
2017-Jul-15 09:29N 37°57' E 023°39'817.1
2017-Jul-15 09:01N 37°49' E 023°35'6 2.2
2017-Jul-15 06:01N 37°42' E 023°35'136.5
2017-Jul-15 06:00N 37°43' E 023°35'1428.6
2017-Jul-15 05:30N 37°57' E 023°39'0 0.0
2017-Jul-15 05:00N 37°57' E 023°39'0 0.0
2017-Jul-15 04:30N 37°57' E 023°39'0 0.0
2017-Jul-15 04:01N 37°57' E 023°39'0 0.0
2017-Jul-15 03:31N 37°57' E 023°39'0 0.0
2017-Jul-15 03:01N 37°57' E 023°39'0 0.0
2017-Jul-15 02:31N 37°57' E 023°39'  

Dump ship's entire track history